Time;durP1;ratioP1;P1;durP2;ratioP2;P2;SDS_P1;SDS_P2;PMS_P1;PMS_P2;Temp;Humidity;BMP_temperature;BMP_pressure;BME280_temperature;BME280_humidity;BME280_pressure;Samples;Min_cycle;Max_cycle;Signal;HPM_P1;HPM_P2
2021/07/31 00:01:38;;;;;;;9.48;6.75;;;;;;;;;;4971852;28;20031;-67
2021/07/31 00:04:03;;;;;;;11.52;7.50;;;;;;;;;;4971381;28;20108;-66
2021/07/31 00:06:29;;;;;;;10.95;6.95;;;;;;;;;;4939842;28;20039;-66
2021/07/31 00:08:54;;;;;;;12.57;6.40;;;;;;;;;;4953284;28;20034;-67
2021/07/31 00:11:19;;;;;;;9.30;6.18;;;;;;;;;;4970424;28;20035;-67
2021/07/31 00:13:45;;;;;;;10.30;5.88;;;;;;;;;;4952014;28;20035;-66
2021/07/31 00:16:10;;;;;;;9.00;5.88;;;;;;;;;;4951524;28;20101;-69
2021/07/31 00:18:36;;;;;;;9.23;5.60;;;;;;;;;;4967079;28;20038;-67
2021/07/31 00:21:01;;;;;;;9.52;5.90;;;;;;;;;;4967791;28;20484;-67
2021/07/31 00:23:27;;;;;;;9.63;6.05;;;;;;;;;;4965880;28;20031;-67
2021/07/31 00:25:53;;;;;;;8.50;5.47;;;;;;;;;;4970931;28;20057;-68
2021/07/31 00:28:19;;;;;;;9.90;5.82;;;;;;;;;;4968635;28;20570;-68
2021/07/31 00:30:44;;;;;;;10.82;6.03;;;;;;;;;;4970188;28;20023;-68
2021/07/31 00:33:09;;;;;;;11.05;5.85;;;;;;;;;;4954461;28;20384;-68
2021/07/31 00:35:35;;;;;;;9.77;4.78;;;;;;;;;;4949322;28;20102;-67
2021/07/31 00:38:00;;;;;;;8.32;5.45;;;;;;;;;;4970105;28;20065;-68
2021/07/31 00:40:26;;;;;;;8.18;5.32;;;;;;;;;;4968695;28;20399;-68
2021/07/31 00:42:51;;;;;;;7.15;4.93;;;;;;;;;;4969253;28;20117;-68
2021/07/31 00:45:17;;;;;;;7.15;4.63;;;;;;;;;;4950372;28;20030;-68
2021/07/31 00:47:43;;;;;;;8.23;4.93;;;;;;;;;;4952025;28;20109;-68
2021/07/31 00:50:09;;;;;;;9.57;4.68;;;;;;;;;;4970800;28;20108;-68
2021/07/31 00:52:35;;;;;;;9.65;4.90;;;;;;;;;;4970234;28;20030;-68
2021/07/31 00:55:01;;;;;;;6.73;4.37;;;;;;;;;;4937746;28;20031;-68
2021/07/31 00:57:28;;;;;;;6.63;4.45;;;;;;;;;;4950460;28;20046;-68
2021/07/31 01:00:12;;;;;;;7.88;4.40;;;;;;;;;;4969160;28;20058;-68
2021/07/31 01:02:38;;;;;;;7.30;4.15;;;;;;;;;;4968652;28;20110;-67
2021/07/31 01:05:04;;;;;;;6.47;3.60;;;;;;;;;;4972485;28;20482;-67
2021/07/31 01:07:30;;;;;;;7.55;3.75;;;;;;;;;;4969428;28;20043;-68
2021/07/31 01:09:55;;;;;;;7.18;3.75;;;;;;;;;;4953109;28;20042;-68
2021/07/31 01:12:21;;;;;;;5.32;3.30;;;;;;;;;;4971235;28;20066;-67
2021/07/31 01:14:48;;;;;;;4.78;3.28;;;;;;;;;;4940022;28;20085;-68
2021/07/31 01:17:13;;;;;;;5.82;3.42;;;;;;;;;;4952707;28;20039;-68
2021/07/31 01:19:41;;;;;;;7.65;3.90;;;;;;;;;;4951685;28;20042;-67
2021/07/31 01:22:06;;;;;;;5.88;3.22;;;;;;;;;;4954680;28;20328;-67
2021/07/31 01:24:34;;;;;;;5.22;3.35;;;;;;;;;;4969487;28;20300;-68
2021/07/31 01:27:02;;;;;;;6.05;3.65;;;;;;;;;;4965847;28;20514;-68
2021/07/31 01:29:29;;;;;;;5.88;3.10;;;;;;;;;;4967600;28;20039;-68
2021/07/31 01:31:55;;;;;;;5.40;3.45;;;;;;;;;;4966323;28;20640;-67
2021/07/31 01:34:23;;;;;;;7.45;3.35;;;;;;;;;;4950990;28;20035;-67
2021/07/31 01:36:49;;;;;;;4.70;3.05;;;;;;;;;;4952356;28;20145;-68
2021/07/31 01:39:18;;;;;;;6.70;3.67;;;;;;;;;;4952447;28;20046;-67
2021/07/31 01:41:46;;;;;;;6.28;3.53;;;;;;;;;;4968482;28;20030;-67
2021/07/31 01:44:12;;;;;;;5.63;3.20;;;;;;;;;;4941038;28;20053;-68
2021/07/31 01:46:37;;;;;;;5.38;3.22;;;;;;;;;;4956013;28;20062;-68
2021/07/31 01:49:02;;;;;;;6.90;3.55;;;;;;;;;;4956835;28;20404;-67
2021/07/31 01:51:34;;;;;;;5.70;3.00;;;;;;;;;;4956628;28;20065;-68
2021/07/31 01:53:59;;;;;;;5.03;2.90;;;;;;;;;;4952806;28;20050;-68
2021/07/31 01:56:26;;;;;;;5.53;3.25;;;;;;;;;;4954261;28;20087;-68
2021/07/31 01:58:54;;;;;;;4.70;2.93;;;;;;;;;;4940615;28;20393;-67
2021/07/31 02:01:20;;;;;;;5.85;2.92;;;;;;;;;;4951757;28;20090;-67
2021/07/31 02:03:46;;;;;;;5.43;2.65;;;;;;;;;;4963464;28;20035;-67
2021/07/31 02:06:26;;;;;;;5.22;2.95;;;;;;;;;;4968991;28;20046;-68
2021/07/31 02:08:52;;;;;;;5.18;2.97;;;;;;;;;;4952277;28;20054;-67
2021/07/31 02:11:20;;;;;;;5.93;2.80;;;;;;;;;;4949976;28;20062;-68
2021/07/31 02:13:47;;;;;;;;;;;;;;;;;;4942089;28;20046;-67
2021/07/31 02:16:26;;;;;;;5.43;2.50;;;;;;;;;;4953713;28;19917;-68
2021/07/31 02:18:53;;;;;;;4.80;2.85;;;;;;;;;;4951880;28;20081;-68
2021/07/31 02:21:19;;;;;;;5.45;2.70;;;;;;;;;;4949020;28;20046;-67
2021/07/31 02:24:03;;;;;;;5.05;2.67;;;;;;;;;;4970723;28;20057;-68
2021/07/31 02:26:52;;;;;;;6.03;2.85;;;;;;;;;;4929574;28;20042;-68
2021/07/31 02:29:24;;;;;;;7.18;2.60;;;;;;;;;;4957284;28;20097;-68
2021/07/31 02:31:50;;;;;;;5.93;2.75;;;;;;;;;;4974616;28;20098;-68
2021/07/31 02:34:16;;;;;;;5.82;2.50;;;;;;;;;;4973995;28;20035;-67
2021/07/31 02:36:43;;;;;;;7.38;2.50;;;;;;;;;;4939851;28;20042;-67
2021/07/31 02:39:19;;;;;;;5.38;2.13;;;;;;;;;;4955019;28;20039;-67
2021/07/31 02:41:44;;;;;;;6.60;2.30;;;;;;;;;;4956714;28;20039;-68
2021/07/31 02:44:10;;;;;;;8.80;2.60;;;;;;;;;;4958195;28;20388;-68
2021/07/31 02:46:38;;;;;;;5.78;2.35;;;;;;;;;;4955717;28;20042;-68
2021/07/31 02:49:03;;;;;;;6.20;2.40;;;;;;;;;;4954079;28;20432;-67
2021/07/31 02:51:28;;;;;;;5.03;2.28;;;;;;;;;;4972099;28;20475;-67
2021/07/31 02:53:57;;;;;;;8.20;2.55;;;;;;;;;;4978093;28;20424;-68
2021/07/31 02:56:23;;;;;;;4.57;2.10;;;;;;;;;;4972087;28;20054;-68
2021/07/31 02:58:49;;;;;;;5.82;2.10;;;;;;;;;;4973604;28;20035;-68
2021/07/31 03:01:15;;;;;;;;;;;;;;;;;;4955372;28;20324;-68
2021/07/31 03:03:41;;;;;;;7.93;2.33;;;;;;;;;;4948555;28;19909;-67
2021/07/31 03:06:09;;;;;;;7.07;2.60;;;;;;;;;;4957031;28;20038;-67
2021/07/31 03:08:36;;;;;;;4.35;2.00;;;;;;;;;;4953349;28;20042;-67
2021/07/31 03:11:03;;;;;;;4.93;2.10;;;;;;;;;;4972214;28;20031;-68
2021/07/31 03:13:31;;;;;;;8.95;2.33;;;;;;;;;;4954058;28;20034;-67
2021/07/31 03:15:57;;;;;;;7.75;2.20;;;;;;;;;;4938895;28;20043;-68
2021/07/31 03:18:23;;;;;;;6.25;2.20;;;;;;;;;;4973755;28;20491;-68
2021/07/31 03:20:49;;;;;;;6.32;2.10;;;;;;;;;;4976544;28;20038;-68
2021/07/31 03:23:16;;;;;;;;;;;;;;;;;;4956820;28;20167;-67
2021/07/31 03:25:41;;;;;;;4.30;2.07;;;;;;;;;;4952700;28;19926;-67
2021/07/31 03:28:07;;;;;;;6.38;2.10;;;;;;;;;;4937643;28;20384;-67
2021/07/31 03:30:41;;;;;;;6.00;2.15;;;;;;;;;;4970755;28;20029;-67
2021/07/31 03:33:13;;;;;;;5.75;2.20;;;;;;;;;;4954993;28;20034;-67
2021/07/31 03:35:42;;;;;;;6.07;2.10;;;;;;;;;;4950619;28;20035;-67
2021/07/31 03:38:46;;;;;;;7.40;1.90;;;;;;;;;;4948216;28;20055;-67
2021/07/31 03:41:11;;;;;;;7.90;2.40;;;;;;;;;;4935413;28;20046;-68
2021/07/31 03:43:44;;;;;;;8.35;2.25;;;;;;;;;;4942739;28;20457;-67
2021/07/31 03:46:12;;;;;;;5.70;2.22;;;;;;;;;;4953859;28;20399;-67
2021/07/31 03:48:39;;;;;;;5.23;2.00;;;;;;;;;;4958511;28;20049;-68
2021/07/31 03:51:08;;;;;;;5.32;2.17;;;;;;;;;;4954555;28;20832;-67
2021/07/31 03:53:37;;;;;;;6.97;1.88;;;;;;;;;;4959222;28;20141;-67
2021/07/31 03:56:03;;;;;;;3.92;1.95;;;;;;;;;;4951417;28;20056;-67
2021/07/31 03:58:31;;;;;;;4.68;2.17;;;;;;;;;;4952055;28;20032;-68
2021/07/31 04:00:57;;;;;;;3.85;2.10;;;;;;;;;;4951924;28;20035;-67
2021/07/31 04:03:22;;;;;;;5.95;2.50;;;;;;;;;;4973166;28;20034;-67
2021/07/31 04:05:51;;;;;;;7.35;2.15;;;;;;;;;;4968775;28;20489;-68
2021/07/31 04:08:35;;;;;;;3.65;2.00;;;;;;;;;;4957164;28;20080;-67
2021/07/31 04:11:20;;;;;;;7.82;2.30;;;;;;;;;;4970083;28;20150;-68
2021/07/31 04:14:04;;;;;;;5.68;2.15;;;;;;;;;;4971354;28;20089;-68
2021/07/31 04:16:52;;;;;;;3.97;2.38;;;;;;;;;;4972584;28;20507;-68
2021/07/31 04:19:17;;;;;;;5.65;2.30;;;;;;;;;;4951871;28;20566;-68
2021/07/31 04:21:45;;;;;;;4.78;2.60;;;;;;;;;;4950739;28;20113;-68
2021/07/31 04:24:13;;;;;;;4.03;2.20;;;;;;;;;;4970619;28;20030;-68
2021/07/31 04:26:38;;;;;;;5.35;2.50;;;;;;;;;;4970181;28;20043;-67
2021/07/31 04:29:03;;;;;;;5.68;2.38;;;;;;;;;;4969864;28;20073;-68
2021/07/31 04:31:29;;;;;;;3.63;2.13;;;;;;;;;;4952792;28;20175;-67
2021/07/31 04:33:54;;;;;;;6.57;2.30;;;;;;;;;;4955475;28;20674;-68
2021/07/31 04:36:19;;;;;;;5.25;2.10;;;;;;;;;;4972981;28;20027;-68
2021/07/31 04:38:45;;;;;;;6.75;2.47;;;;;;;;;;4951581;28;20113;-67
2021/07/31 04:41:10;;;;;;;4.47;2.08;;;;;;;;;;4952520;28;20452;-66
2021/07/31 04:43:38;;;;;;;6.50;2.55;;;;;;;;;;4954041;28;20043;-68
2021/07/31 04:46:03;;;;;;;6.28;2.50;;;;;;;;;;4952464;28;20034;-67
2021/07/31 04:48:29;;;;;;;8.20;2.50;;;;;;;;;;4970494;28;20031;-68
2021/07/31 04:50:56;;;;;;;4.63;2.55;;;;;;;;;;4951184;28;20157;-67
2021/07/31 04:53:21;;;;;;;7.03;2.40;;;;;;;;;;4955764;28;20038;-68
2021/07/31 04:55:46;;;;;;;9.07;2.80;;;;;;;;;;4970265;28;20038;-67
2021/07/31 04:58:12;;;;;;;6.07;2.45;;;;;;;;;;4970680;28;20038;-67
2021/07/31 05:00:37;;;;;;;5.72;2.45;;;;;;;;;;4968390;28;20110;-68
2021/07/31 05:03:06;;;;;;;5.13;2.67;;;;;;;;;;4968076;28;20050;-68
2021/07/31 05:05:36;;;;;;;4.90;2.30;;;;;;;;;;4964538;28;20031;-68
2021/07/31 05:08:01;;;;;;;6.43;2.60;;;;;;;;;;4953346;28;20042;-68
2021/07/31 05:10:26;;;;;;;5.05;2.60;;;;;;;;;;4964443;28;20038;-67
2021/07/31 05:12:52;;;;;;;5.75;2.50;;;;;;;;;;4955126;28;20035;-68
2021/07/31 05:15:17;;;;;;;3.80;2.03;;;;;;;;;;4952283;28;20480;-67
2021/07/31 05:17:42;;;;;;;6.10;2.30;;;;;;;;;;4970068;28;20044;-72
2021/07/31 05:20:08;;;;;;;4.70;2.40;;;;;;;;;;4964124;28;20054;-72
2021/07/31 05:22:33;;;;;;;6.18;2.40;;;;;;;;;;4967444;28;20027;-69
2021/07/31 05:24:59;;;;;;;7.47;2.38;;;;;;;;;;4928686;28;20437;-69
2021/07/31 05:27:25;;;;;;;5.57;2.10;;;;;;;;;;4951342;28;20169;-69
2021/07/31 05:29:50;;;;;;;4.63;2.20;;;;;;;;;;4951081;28;20039;-69
2021/07/31 05:32:16;;;;;;;4.88;2.22;;;;;;;;;;4955845;28;20155;-69
2021/07/31 05:34:42;;;;;;;3.23;1.80;;;;;;;;;;4963873;28;20026;-69
2021/07/31 05:37:07;;;;;;;4.05;2.00;;;;;;;;;;4953278;28;20117;-69
2021/07/31 05:39:33;;;;;;;8.15;2.55;;;;;;;;;;4972506;28;20027;-69
2021/07/31 05:42:02;;;;;;;6.28;2.53;;;;;;;;;;4970669;28;20034;-69
2021/07/31 05:44:30;;;;;;;4.78;2.30;;;;;;;;;;4969524;28;20034;-69
2021/07/31 05:46:55;;;;;;;6.57;2.10;;;;;;;;;;4966328;28;20050;-69
2021/07/31 05:49:20;;;;;;;7.28;2.17;;;;;;;;;;4953457;28;20031;-69
2021/07/31 05:51:46;;;;;;;5.95;2.13;;;;;;;;;;4970258;28;20625;-69
2021/07/31 05:54:11;;;;;;;7.15;2.00;;;;;;;;;;4954686;28;20129;-69
2021/07/31 05:56:37;;;;;;;7.97;2.05;;;;;;;;;;4968156;28;20624;-70
2021/07/31 05:59:04;;;;;;;7.03;2.17;;;;;;;;;;4935690;28;20034;-69
2021/07/31 06:01:35;;;;;;;5.47;1.83;;;;;;;;;;4955643;28;20038;-69
2021/07/31 06:04:02;;;;;;;5.47;1.88;;;;;;;;;;4949397;28;20050;-69
2021/07/31 06:06:28;;;;;;;6.22;2.00;;;;;;;;;;4968433;28;20037;-69
2021/07/31 06:08:53;;;;;;;5.07;1.88;;;;;;;;;;4967233;28;20052;-70
2021/07/31 06:11:18;;;;;;;4.70;1.98;;;;;;;;;;4972911;28;20095;-69
2021/07/31 06:13:44;;;;;;;7.47;2.05;;;;;;;;;;4952178;28;20035;-69
2021/07/31 06:16:12;;;;;;;7.72;2.15;;;;;;;;;;4970141;28;20137;-69
2021/07/31 06:18:38;;;;;;;5.28;1.88;;;;;;;;;;4971170;28;20112;-69
2021/07/31 06:21:17;;;;;;;7.00;2.03;;;;;;;;;;4955837;28;20031;-69
2021/07/31 06:23:43;;;;;;;5.82;1.98;;;;;;;;;;4971200;28;20498;-69
2021/07/31 06:26:09;;;;;;;7.43;2.00;;;;;;;;;;4968062;28;20026;-69
2021/07/31 06:28:34;;;;;;;7.85;2.00;;;;;;;;;;4967222;28;20042;-70
2021/07/31 06:30:59;;;;;;;6.72;2.13;;;;;;;;;;4952075;28;20062;-69
2021/07/31 06:33:25;;;;;;;7.90;2.30;;;;;;;;;;4969355;28;20031;-69
2021/07/31 06:35:50;;;;;;;3.78;1.70;;;;;;;;;;4952468;28;20491;-69
2021/07/31 06:38:15;;;;;;;7.30;2.22;;;;;;;;;;4952450;28;20121;-69
2021/07/31 06:40:42;;;;;;;6.80;2.00;;;;;;;;;;4954535;28;20027;-69
2021/07/31 06:43:07;;;;;;;13.32;2.40;;;;;;;;;;4952961;28;20041;-69
2021/07/31 06:45:33;;;;;;;4.32;2.17;;;;;;;;;;4953877;28;20038;-69
2021/07/31 06:47:58;;;;;;;5.18;1.77;;;;;;;;;;4968261;28;20387;-69
2021/07/31 06:50:23;;;;;;;3.78;1.83;;;;;;;;;;4951580;28;20058;-70
2021/07/31 06:52:49;;;;;;;8.10;2.35;;;;;;;;;;4951691;28;20031;-70
2021/07/31 06:55:14;;;;;;;7.43;2.00;;;;;;;;;;4968921;28;20053;-70
2021/07/31 06:57:40;;;;;;;6.90;1.80;;;;;;;;;;4968887;28;20097;-70
2021/07/31 07:00:05;;;;;;;8.63;2.10;;;;;;;;;;4971313;28;20535;-69
2021/07/31 07:02:30;;;;;;;6.75;2.00;;;;;;;;;;4953481;28;20058;-71
2021/07/31 07:04:56;;;;;;;6.32;1.70;;;;;;;;;;4966365;28;20102;-71
2021/07/31 07:07:21;;;;;;;6.53;1.92;;;;;;;;;;4949199;28;20117;-71
2021/07/31 07:09:47;;;;;;;4.35;1.80;;;;;;;;;;4969263;28;20030;-71
2021/07/31 07:12:12;;;;;;;5.32;1.92;;;;;;;;;;4969903;28;20053;-71
2021/07/31 07:14:37;;;;;;;4.40;1.70;;;;;;;;;;4955266;28;20575;-71
2021/07/31 07:17:06;;;;;;;5.75;1.88;;;;;;;;;;4956148;28;20034;-71
2021/07/31 07:19:32;;;;;;;4.90;1.80;;;;;;;;;;4970270;28;20049;-70
2021/07/31 07:22:00;;;;;;;4.93;1.70;;;;;;;;;;4976118;28;20381;-71
2021/07/31 07:24:25;;;;;;;6.07;2.00;;;;;;;;;;4974714;28;20034;-71
2021/07/31 07:26:51;;;;;;;6.63;2.08;;;;;;;;;;4970424;28;20039;-71
2021/07/31 07:29:18;;;;;;;5.72;1.90;;;;;;;;;;4971643;28;20038;-70
2021/07/31 07:31:44;;;;;;;6.35;2.10;;;;;;;;;;4972488;28;20027;-71
2021/07/31 07:34:09;;;;;;;7.03;2.20;;;;;;;;;;4968215;28;20037;-70
2021/07/31 07:36:34;;;;;;;5.68;1.80;;;;;;;;;;4973550;28;20061;-71
2021/07/31 07:39:00;;;;;;;8.75;2.03;;;;;;;;;;4969742;28;20042;-70
2021/07/31 07:41:25;;;;;;;5.72;2.30;;;;;;;;;;4979552;28;20554;-71
2021/07/31 07:43:51;;;;;;;10.20;2.10;;;;;;;;;;4976154;28;20033;-70
2021/07/31 07:46:16;;;;;;;4.40;1.90;;;;;;;;;;4958170;28;20377;-70
2021/07/31 07:48:42;;;;;;;6.05;1.90;;;;;;;;;;4978185;28;20480;-71
2021/07/31 07:51:08;;;;;;;3.40;1.70;;;;;;;;;;4973547;28;20047;-70
2021/07/31 07:53:33;;;;;;;8.63;1.92;;;;;;;;;;4974919;28;20387;-70
2021/07/31 07:55:58;;;;;;;5.20;1.67;;;;;;;;;;4954310;28;20046;-70
2021/07/31 07:58:24;;;;;;;9.00;2.20;;;;;;;;;;4976765;28;20031;-70
2021/07/31 08:00:49;;;;;;;9.25;2.17;;;;;;;;;;4971555;28;20109;-70
2021/07/31 08:03:17;;;;;;;5.47;1.65;;;;;;;;;;4974201;28;20030;-70
2021/07/31 08:05:42;;;;;;;7.90;2.08;;;;;;;;;;4969713;28;20033;-71
2021/07/31 08:08:08;;;;;;;6.03;1.77;;;;;;;;;;4973753;28;20038;-69
2021/07/31 08:10:34;;;;;;;6.30;1.90;;;;;;;;;;4955918;28;20567;-70
2021/07/31 08:13:00;;;;;;;9.95;2.28;;;;;;;;;;4973553;28;20027;-71
2021/07/31 08:15:25;;;;;;;12.90;1.98;;;;;;;;;;4954611;28;20038;-70
2021/07/31 08:17:53;;;;;;;6.68;1.90;;;;;;;;;;4970304;28;20057;-70
2021/07/31 08:20:18;;;;;;;6.57;2.10;;;;;;;;;;4971689;28;20038;-70
2021/07/31 08:22:43;;;;;;;6.25;1.85;;;;;;;;;;4956341;28;20415;-70
2021/07/31 08:25:09;;;;;;;4.95;1.80;;;;;;;;;;4954856;28;20475;-71
2021/07/31 08:27:35;;;;;;;4.68;1.73;;;;;;;;;;4959003;28;20034;-70
2021/07/31 08:30:00;;;;;;;5.30;1.80;;;;;;;;;;4970190;28;20502;-70
2021/07/31 08:32:28;;;;;;;4.82;1.80;;;;;;;;;;4969365;28;20054;-70
2021/07/31 08:34:53;;;;;;;6.97;1.73;;;;;;;;;;4966290;28;20034;-71
2021/07/31 08:37:21;;;;;;;5.45;1.65;;;;;;;;;;4945032;28;20112;-70
2021/07/31 08:39:46;;;;;;;6.35;1.80;;;;;;;;;;4971578;28;20440;-70
2021/07/31 08:42:12;;;;;;;10.88;1.83;;;;;;;;;;4969109;28;20145;-70
2021/07/31 08:44:37;;;;;;;5.15;1.80;;;;;;;;;;4970876;28;20546;-70
2021/07/31 08:47:04;;;;;;;5.78;2.10;;;;;;;;;;4971759;28;20063;-71
2021/07/31 08:49:29;;;;;;;5.70;1.70;;;;;;;;;;4952649;28;20094;-71
2021/07/31 08:51:56;;;;;;;7.63;2.00;;;;;;;;;;4951904;28;20432;-71
2021/07/31 08:54:22;;;;;;;8.75;2.22;;;;;;;;;;4971858;28;20030;-71
2021/07/31 08:56:47;;;;;;;9.63;2.00;;;;;;;;;;4957160;28;20133;-70
2021/07/31 08:59:13;;;;;;;8.52;1.95;;;;;;;;;;4974064;28;20464;-70
2021/07/31 09:01:38;;;;;;;6.00;1.90;;;;;;;;;;4972970;28;20042;-70
2021/07/31 09:04:15;;;;;;;4.45;1.55;;;;;;;;;;4974006;28;20065;-71
2021/07/31 09:06:40;;;;;;;;;;;;;;;;;;4972299;28;20043;-70
2021/07/31 09:09:06;;;;;;;4.63;2.00;;;;;;;;;;4949483;28;19921;-71
2021/07/31 09:11:32;;;;;;;4.55;2.00;;;;;;;;;;4969336;28;20077;-71
2021/07/31 09:14:14;;;;;;;4.60;1.75;;;;;;;;;;4973025;28;20031;-71
2021/07/31 09:16:40;;;;;;;6.53;2.15;;;;;;;;;;4954066;28;20397;-70
2021/07/31 09:19:06;;;;;;;7.40;2.00;;;;;;;;;;4954291;28;20034;-71
2021/07/31 09:21:32;;;;;;;8.43;2.08;;;;;;;;;;4967949;28;20031;-71
2021/07/31 09:23:57;;;;;;;6.07;1.80;;;;;;;;;;4971062;28;20379;-71
2021/07/31 09:26:38;;;;;;;5.78;1.92;;;;;;;;;;4968774;28;20035;-71
2021/07/31 09:29:06;;;;;;;9.73;2.50;;;;;;;;;;4970580;28;20072;-71
2021/07/31 09:31:32;;;;;;;6.20;2.00;;;;;;;;;;4956708;28;20034;-71
2021/07/31 09:33:59;;;;;;;5.80;1.88;;;;;;;;;;4953183;28;20030;-71
2021/07/31 09:36:24;;;;;;;;;;;;;;;;;;4952555;28;20503;-71
2021/07/31 09:38:49;;;;;;;6.10;2.03;;;;;;;;;;4968232;28;19910;-71
2021/07/31 09:41:15;;;;;;;6.95;2.20;;;;;;;;;;4970839;28;20038;-71
2021/07/31 09:43:40;;;;;;;7.75;2.40;;;;;;;;;;4971307;28;20026;-71
2021/07/31 09:46:14;;;;;;;6.25;2.28;;;;;;;;;;4952238;28;20108;-71
2021/07/31 09:48:57;;;;;;;5.13;1.88;;;;;;;;;;4953385;28;20105;-71
2021/07/31 09:51:30;;;;;;;6.20;1.92;;;;;;;;;;4969659;28;20046;-71
2021/07/31 09:53:55;;;;;;;7.55;2.20;;;;;;;;;;4969058;28;20034;-71
2021/07/31 09:56:21;;;;;;;6.55;2.15;;;;;;;;;;4969062;28;20033;-71
2021/07/31 09:58:46;;;;;;;7.80;2.10;;;;;;;;;;4973584;28;20045;-71
2021/07/31 10:01:13;;;;;;;7.47;2.17;;;;;;;;;;4967228;28;20027;-71
2021/07/31 10:03:41;;;;;;;4.97;1.88;;;;;;;;;;4967566;28;20038;-71
2021/07/31 10:06:07;;;;;;;5.40;1.90;;;;;;;;;;4935016;28;20108;-70
2021/07/31 10:08:35;;;;;;;3.15;1.60;;;;;;;;;;4940749;28;20133;-70
2021/07/31 10:11:01;;;;;;;7.45;2.17;;;;;;;;;;4950661;28;20035;-70
2021/07/31 10:13:28;;;;;;;4.78;2.00;;;;;;;;;;4968821;28;20097;-70
2021/07/31 10:15:53;;;;;;;5.95;1.70;;;;;;;;;;4969818;28;20023;-70
2021/07/31 10:18:22;;;;;;;8.00;1.90;;;;;;;;;;4971130;28;20678;-70
2021/07/31 10:20:48;;;;;;;6.88;1.95;;;;;;;;;;4970875;28;20058;-70
2021/07/31 10:23:34;;;;;;;5.25;2.00;;;;;;;;;;4948994;28;20054;-72
2021/07/31 10:26:10;;;;;;;4.95;2.00;;;;;;;;;;4968512;28;20555;-71
2021/07/31 10:28:35;;;;;;;;;;;;;;;;;;4966163;28;20026;-71
2021/07/31 10:31:20;;;;;;;7.13;2.00;;;;;;;;;;4968148;28;19922;-71
2021/07/31 10:33:45;;;;;;;5.22;1.88;;;;;;;;;;4951424;28;20035;-71
2021/07/31 10:36:27;;;;;;;5.07;2.03;;;;;;;;;;4968981;28;20538;-71
2021/07/31 10:38:55;;;;;;;6.88;1.77;;;;;;;;;;4938176;28;20042;-70
2021/07/31 10:41:43;;;;;;;5.30;2.05;;;;;;;;;;4964515;28;20058;-70
2021/07/31 10:44:12;;;;;;;4.82;2.20;;;;;;;;;;4968735;28;20508;-70
2021/07/31 10:46:39;;;;;;;5.13;1.80;;;;;;;;;;4935238;28;20543;-70
2021/07/31 10:49:04;;;;;;;;;;;;;;;;;;4971853;28;20029;-70
2021/07/31 10:51:39;;;;;;;4.40;1.80;;;;;;;;;;4972947;28;19914;-70
2021/07/31 10:54:04;;;;;;;6.85;2.28;;;;;;;;;;4941927;28;20034;-70
2021/07/31 10:56:50;;;;;;;4.97;1.60;;;;;;;;;;4973613;28;20049;-70
2021/07/31 10:59:22;;;;;;;5.05;1.90;;;;;;;;;;4975440;28;20313;-70
2021/07/31 11:01:48;;;;;;;5.03;1.60;;;;;;;;;;4974243;28;20034;-70
2021/07/31 11:04:32;;;;;;;4.22;1.88;;;;;;;;;;4971578;28;20030;-70
2021/07/31 11:07:08;;;;;;;5.43;2.30;;;;;;;;;;4970217;28;20039;-71
2021/07/31 11:09:33;;;;;;;5.75;1.80;;;;;;;;;;4969008;28;20035;-70
2021/07/31 11:12:18;;;;;;;8.55;2.13;;;;;;;;;;4970369;28;20034;-70
2021/07/31 11:15:03;;;;;;;5.40;2.00;;;;;;;;;;4968280;28;20109;-70
2021/07/31 11:17:31;;;;;;;4.72;1.60;;;;;;;;;;4971771;28;20039;-70
2021/07/31 11:19:58;;;;;;;5.97;1.75;;;;;;;;;;4970112;28;20077;-70
2021/07/31 11:22:27;;;;;;;6.13;1.70;;;;;;;;;;4974350;28;20452;-70
2021/07/31 11:24:55;;;;;;;4.90;2.05;;;;;;;;;;4967789;28;20026;-70
2021/07/31 11:27:23;;;;;;;9.43;3.20;;;;;;;;;;4969312;28;20051;-70
2021/07/31 11:29:52;;;;;;;5.78;2.20;;;;;;;;;;4971190;28;20113;-70
2021/07/31 11:32:26;;;;;;;5.70;1.98;;;;;;;;;;4973200;28;20506;-70
2021/07/31 11:34:51;;;;;;;4.95;2.13;;;;;;;;;;4971858;28;20138;-70
2021/07/31 11:37:17;;;;;;;6.47;2.07;;;;;;;;;;4975517;28;20084;-70
2021/07/31 11:39:45;;;;;;;7.23;2.13;;;;;;;;;;4941069;28;20037;-70
2021/07/31 11:42:17;;;;;;;4.70;1.70;;;;;;;;;;4941272;28;20031;-70
2021/07/31 11:44:43;;;;;;;7.13;2.30;;;;;;;;;;4974899;28;20034;-70
2021/07/31 11:47:08;;;;;;;5.17;1.80;;;;;;;;;;4969222;28;20054;-70
2021/07/31 11:49:34;;;;;;;12.23;2.37;;;;;;;;;;4971325;28;20567;-70
2021/07/31 11:52:01;;;;;;;5.75;1.90;;;;;;;;;;4955408;28;20138;-70
2021/07/31 11:54:27;;;;;;;5.55;1.92;;;;;;;;;;4970307;28;20038;-70
2021/07/31 11:56:52;;;;;;;6.05;1.90;;;;;;;;;;4952789;28;20045;-70
2021/07/31 11:59:46;;;;;;;6.35;1.95;;;;;;;;;;4967884;28;20542;-70
2021/07/31 12:02:13;;;;;;;5.75;1.98;;;;;;;;;;4937130;28;20133;-69
2021/07/31 12:04:50;;;;;;;10.40;2.13;;;;;;;;;;4970988;28;20395;-69
2021/07/31 12:07:19;;;;;;;4.85;2.08;;;;;;;;;;4969575;28;20042;-69
2021/07/31 12:10:01;;;;;;;3.72;1.75;;;;;;;;;;4975095;28;20034;-69
2021/07/31 12:12:29;;;;;;;5.00;1.88;;;;;;;;;;4971668;28;20038;-69
2021/07/31 12:14:55;;;;;;;;;;;;;;;;;;4973022;28;20031;-69
2021/07/31 12:17:21;;;;;;;;;;;;;;;;;;4968914;28;19957;-69
2021/07/31 12:19:48;;;;;;;5.95;2.00;;;;;;;;;;4975150;28;20383;-69
2021/07/31 12:22:17;;;;;;;3.42;1.65;;;;;;;;;;4970737;28;20480;-72
2021/07/31 12:24:42;;;;;;;5.43;2.05;;;;;;;;;;4969344;28;20026;-69
2021/07/31 12:27:08;;;;;;;3.77;1.70;;;;;;;;;;4972468;28;20101;-69
2021/07/31 12:29:33;;;;;;;5.97;1.77;;;;;;;;;;4972050;28;20080;-69
2021/07/31 12:32:17;;;;;;;4.57;1.80;;;;;;;;;;4952724;28;20045;-69
2021/07/31 12:34:42;;;;;;;5.53;1.75;;;;;;;;;;4954289;28;20034;-70
2021/07/31 12:37:08;;;;;;;6.17;2.30;;;;;;;;;;4974989;28;20041;-69
2021/07/31 12:39:33;;;;;;;5.67;2.07;;;;;;;;;;4954064;28;20030;-70
2021/07/31 12:41:58;;;;;;;4.57;2.03;;;;;;;;;;4973645;28;20132;-69
2021/07/31 12:44:24;;;;;;;6.27;2.07;;;;;;;;;;4956731;28;20114;-69
2021/07/31 12:46:50;;;;;;;6.07;2.17;;;;;;;;;;4970900;28;20137;-70
2021/07/31 12:49:17;;;;;;;5.73;2.17;;;;;;;;;;4969229;28;20428;-70
2021/07/31 12:51:43;;;;;;;5.28;1.88;;;;;;;;;;4953855;28;20085;-70
2021/07/31 12:54:09;;;;;;;4.23;1.80;;;;;;;;;;4970254;28;20460;-70
2021/07/31 12:56:34;;;;;;;4.53;1.75;;;;;;;;;;4974344;28;20034;-70
2021/07/31 12:58:59;;;;;;;6.23;2.20;;;;;;;;;;4970327;28;20561;-70
2021/07/31 13:01:25;;;;;;;6.33;2.07;;;;;;;;;;4969275;28;20043;-70
2021/07/31 13:03:51;;;;;;;7.10;2.23;;;;;;;;;;4968524;28;20502;-70
2021/07/31 13:06:16;;;;;;;6.20;2.00;;;;;;;;;;4951488;28;20332;-69
2021/07/31 13:08:42;;;;;;;9.83;2.40;;;;;;;;;;4972827;28;20205;-70
2021/07/31 13:11:07;;;;;;;3.30;1.80;;;;;;;;;;4968688;28;20423;-70
2021/07/31 13:13:32;;;;;;;6.97;2.00;;;;;;;;;;4951783;28;20027;-70
2021/07/31 13:16:00;;;;;;;6.23;1.97;;;;;;;;;;4970686;28;20038;-70
2021/07/31 13:18:25;;;;;;;4.28;1.83;;;;;;;;;;4969280;28;20036;-69
2021/07/31 13:20:51;;;;;;;6.20;1.90;;;;;;;;;;4974503;28;20478;-70
2021/07/31 13:23:16;;;;;;;5.17;1.97;;;;;;;;;;4967636;28;20030;-70
2021/07/31 13:25:44;;;;;;;5.28;1.95;;;;;;;;;;4971910;28;20093;-70
2021/07/31 13:28:12;;;;;;;3.87;1.87;;;;;;;;;;4969956;28;20023;-70
2021/07/31 13:30:39;;;;;;;7.43;2.20;;;;;;;;;;4967430;28;20468;-70
2021/07/31 13:33:05;;;;;;;5.90;1.80;;;;;;;;;;4972057;28;20346;-70
2021/07/31 13:35:31;;;;;;;7.35;2.00;;;;;;;;;;4948341;28;20379;-70
2021/07/31 13:37:59;;;;;;;9.52;2.10;;;;;;;;;;4970062;28;20458;-70
2021/07/31 13:40:26;;;;;;;4.50;1.98;;;;;;;;;;4969399;28;20034;-70
2021/07/31 13:42:53;;;;;;;5.38;1.90;;;;;;;;;;4970005;28;20031;-70
2021/07/31 13:45:23;;;;;;;5.43;2.00;;;;;;;;;;4951276;28;20476;-70
2021/07/31 13:47:49;;;;;;;4.80;1.90;;;;;;;;;;4953004;28;20238;-70
2021/07/31 13:50:15;;;;;;;5.25;2.10;;;;;;;;;;4969134;28;20031;-70
2021/07/31 13:52:40;;;;;;;4.47;2.22;;;;;;;;;;4969350;28;20030;-70
2021/07/31 13:55:06;;;;;;;3.87;2.00;;;;;;;;;;4951459;28;20090;-70
2021/07/31 13:57:32;;;;;;;5.97;2.00;;;;;;;;;;4968014;28;20038;-70
2021/07/31 13:59:59;;;;;;;7.87;2.30;;;;;;;;;;4950362;28;20039;-70
2021/07/31 14:02:25;;;;;;;5.65;2.28;;;;;;;;;;4950374;28;20479;-70
2021/07/31 14:04:50;;;;;;;6.80;1.93;;;;;;;;;;4949184;28;20124;-70
2021/07/31 14:07:15;;;;;;;4.87;2.03;;;;;;;;;;4968587;28;20475;-70
2021/07/31 14:09:41;;;;;;;6.67;2.00;;;;;;;;;;4970831;28;20037;-70
2021/07/31 14:12:06;;;;;;;5.17;1.87;;;;;;;;;;4970903;28;20134;-71
2021/07/31 14:14:32;;;;;;;6.93;2.00;;;;;;;;;;4969708;28;20022;-70
2021/07/31 14:16:57;;;;;;;5.20;2.00;;;;;;;;;;4968220;28;20085;-70
2021/07/31 14:19:22;;;;;;;6.80;2.10;;;;;;;;;;4969984;28;20055;-71
2021/07/31 14:21:48;;;;;;;5.43;2.03;;;;;;;;;;4952932;28;20035;-71
2021/07/31 14:24:15;;;;;;;4.75;1.75;;;;;;;;;;4935953;28;20023;-71
2021/07/31 14:26:42;;;;;;;5.07;2.07;;;;;;;;;;4975139;28;20468;-71
2021/07/31 14:29:10;;;;;;;4.30;1.92;;;;;;;;;;4976462;28;21069;-71
2021/07/31 14:31:36;;;;;;;6.75;2.15;;;;;;;;;;4954535;28;20037;-71
2021/07/31 14:34:01;;;;;;;6.57;2.20;;;;;;;;;;4943622;28;20034;-71
2021/07/31 14:36:28;;;;;;;5.87;2.13;;;;;;;;;;4944524;28;20957;-71
2021/07/31 14:38:53;;;;;;;6.72;1.90;;;;;;;;;;4959542;28;20026;-70
2021/07/31 14:41:20;;;;;;;5.63;1.80;;;;;;;;;;4966011;28;20031;-70
2021/07/31 14:43:45;;;;;;;5.78;1.75;;;;;;;;;;4970861;28;20125;-70
2021/07/31 14:46:11;;;;;;;6.70;1.83;;;;;;;;;;4971609;28;20166;-70
2021/07/31 14:48:36;;;;;;;5.93;2.17;;;;;;;;;;4957225;28;20411;-70